Search for airport 
image banner adimage banner ad
image banner ad

SNNX - Fazenda Boa Vista Airport

Located in Corumbiara, Brazil

ICAO - SNNX, IATA -

Data provided by Airmate  

General information

Coordinates: S29°58'50" W57°16'16"
Elevation is 223 feet MSL.
Magnetic variation is -12° East
View others Airports in Rio Grande do Sul

Operational data

Open for public use
Current time UTC:
Current local time:
Weather at : SBUG - Rubem Berta ( 31 km )
TAF: TAF SBUG 030900Z 0312/0324 15008KT 8000 BKN015 TN21/0312Z TX25/0317Z PROB30 0312/0314 5000 RA BKN012 BECMG 0318/0320 17015KT 9999 NSW SCT020 RMK PEN
View NOTAMs / SUP AIP / TFR affecting this airport [VIEW]
Communications frequencies: [VIEW]

Runways:

RWY identifierQFULength (ft)Width (ft)SurfaceLDA (ft)
14315282GRASS
32315282GRASS

Airport contact information

Address: Corumbiara Brazil

Satellite view of SNNX